Carlisle, United Kingdom

7:14 PM GMT on January 26, 2015 (GMT +0000)
Brampton, Cumbria | Change Station
CLOSE
Current Station
Personal Weather Station
Location: Brampton, CUMBRIA
Elevation: 390 ft
Nearby Weather Stations

Elev 390 ft 54.94 °N, 2.73 °W | Updated 0 second ago

Clear
Clear
39.0 °F
Feels Like 36 °F
N
4.0
Wind Variable Wind from SW
Gusts 9.0 mph

Today
High -- | Low -- °F
--% Chance of Precip.
Yesterday
High -- | Low -- °F
Precip. -- in
8:12 AM 4:35 PM
Waxing Crescent, 46% visible
Pressure 30.18 in
Visibility 6.2 miles
Clouds
Windchill 36 °F
Dew Point 36 °F
Humidity 88%
Rainfall 0.05 in
Snow Depth Not available.
UV Not available.
Pollen Not available.
Air Quality Not available.
Flu Activity Not available.
METAR EGOM 261850Z AUTO 26012KT 9999 NCD 01/01 Q1022

More Conditions Fewer Conditions

Pressure 30.18 in
Visibility 6.2 miles
Clouds
Windchill 36 °F
Dew Point 36 °F
Humidity 88%
Rainfall 0.05 in
Snow Depth Not available.
UV Not available.
Pollen Not available.
Air Quality Not available.
Flu Activity Not available.
METAR EGOM 261850Z AUTO 26012KT 9999 NCD 01/01 Q1022

More Conditions Fewer Conditions

10-Day Weather Forecast

Almanac

Astronomy

Jan. 26, 2015 Rise Set
Actual Time
Civil Twilight
Nautical Twilight
Astronomical Twilight
Moon
Length of Visible Light
Length of Day
Tomorrow will be .
, % of the Moon is Illuminated

Today's Extremes

Country Highs Country Lows

Community

WunderPhotos

Upload Photos

1,790,336 photos uploaded!

WunderBlogs® & News

Nearby

Air Quality

  Air Quality AQ Index Pollutant
Not available.

Snow Depth

Station Depth Elevation

Earthquake Activity

City Distance Mag. Time & Date
Minimum magnitude displayed is 2.5.

Coastal Water Temperatures

Place Temperature

Nearby Weather Stations